createdAt,value
2023-01-21T00:00:11.926Z,1.00
2023-01-21T00:02:38.749Z,0.98
2023-01-21T00:05:06.247Z,0.97
2023-01-21T00:07:33.035Z,0.97
2023-01-21T00:09:59.886Z,1.00
2023-01-21T00:12:26.788Z,1.04
2023-01-21T00:14:53.571Z,1.04
2023-01-21T00:17:20.386Z,1.05
2023-01-21T00:19:47.192Z,1.04
2023-01-21T00:22:13.949Z,1.02
2023-01-21T00:24:40.749Z,1.04
2023-01-21T00:27:07.688Z,1.05
2023-01-21T00:29:34.451Z,1.07
2023-01-21T00:32:01.277Z,1.09
2023-01-21T00:34:28.561Z,1.07
2023-01-21T00:36:56.616Z,1.03
2023-01-21T00:39:23.636Z,1.00
2023-01-21T00:41:50.596Z,0.99
2023-01-21T00:44:17.896Z,1.00
2023-01-21T00:46:44.750Z,1.02
2023-01-21T00:49:11.699Z,1.04
2023-01-21T00:51:38.472Z,1.04
2023-01-21T00:54:05.279Z,1.04
2023-01-21T00:56:32.259Z,1.01
2023-01-21T00:58:59.187Z,0.99
2023-01-21T01:01:28.016Z,1.00
2023-01-21T01:03:54.953Z,1.01
2023-01-21T01:06:24.087Z,1.05
2023-01-21T01:08:52.036Z,1.08
2023-01-21T01:11:21.693Z,1.11
2023-01-21T01:13:48.486Z,1.10
2023-01-21T01:16:16.188Z,1.09
2023-01-21T01:18:43.352Z,1.10
2023-01-21T01:21:14.202Z,1.12
2023-01-21T01:23:41.290Z,1.13
2023-01-21T01:26:11.830Z,1.16
2023-01-21T01:28:38.666Z,1.18
2023-01-21T01:31:08.290Z,1.19
2023-01-21T01:33:35.213Z,1.17
2023-01-21T01:36:06.387Z,1.16
2023-01-21T01:38:34.832Z,1.17
2023-01-21T01:41:02.432Z,1.20
2023-01-21T01:43:51.955Z,1.22
2023-01-21T01:46:19.204Z,1.25
2023-01-21T01:48:50.436Z,1.25
2023-01-21T01:51:21.501Z,1.23
2023-01-21T01:53:48.501Z,1.20
2023-01-21T01:56:16.241Z,1.17
2023-01-21T01:58:45.292Z,1.16
2023-01-21T02:01:12.134Z,1.16
2023-01-21T02:03:45.192Z,1.18
2023-01-21T02:06:14.405Z,1.19
2023-01-21T02:08:45.574Z,1.18
2023-01-21T02:11:15.242Z,1.19
2023-01-21T02:13:44.833Z,1.16
2023-01-21T02:16:22.627Z,1.12
2023-01-21T02:19:05.925Z,1.10
2023-01-21T02:22:03.446Z,1.12
2023-01-21T02:24:52.800Z,1.12
2023-01-21T02:27:32.937Z,1.13
2023-01-21T02:30:00.793Z,1.11
2023-01-21T02:32:30.871Z,1.07
2023-01-21T02:35:14.343Z,1.06
2023-01-21T02:37:56.287Z,1.03
2023-01-21T02:40:45.011Z,1.04
2023-01-21T02:43:22.538Z,1.06
2023-01-21T02:45:58.742Z,1.07
2023-01-21T02:48:39.556Z,1.08
2023-01-21T02:51:06.713Z,1.04
2023-01-21T02:53:35.982Z,1.01
2023-01-21T02:56:08.628Z,1.00
2023-01-21T02:58:40.119Z,1.01
2023-01-21T03:01:10.524Z,1.03
2023-01-21T03:04:02.542Z,1.02
2023-01-21T03:06:49.162Z,1.00
2023-01-21T03:09:32.833Z,0.98
2023-01-21T03:12:15.754Z,0.94
2023-01-21T03:15:06.961Z,0.93
2023-01-21T03:17:42.225Z,0.94
2023-01-21T03:20:20.419Z,0.97
2023-01-21T03:22:51.037Z,0.98
2023-01-21T03:25:18.614Z,0.99
2023-01-21T03:27:48.137Z,1.00
2023-01-21T03:30:18.651Z,0.98
2023-01-21T03:32:50.620Z,0.93
2023-01-21T03:35:25.824Z,0.91
2023-01-21T03:37:58.804Z,0.89
2023-01-21T03:40:30.641Z,0.91
2023-01-21T03:42:57.758Z,0.94
2023-01-21T03:45:34.808Z,0.97
2023-01-21T03:48:10.211Z,0.97
2023-01-21T03:50:44.131Z,0.96
2023-01-21T03:53:11.536Z,0.93
2023-01-21T03:55:38.305Z,0.89
2023-01-21T03:58:05.101Z,0.86
2023-01-21T04:00:31.889Z,0.85
2023-01-21T04:02:58.652Z,0.84
2023-01-21T04:05:25.546Z,0.84
2023-01-21T04:07:52.380Z,0.82
2023-01-21T04:10:19.332Z,0.79
2023-01-21T04:12:46.173Z,0.75
2023-01-21T04:15:13.304Z,0.72
2023-01-21T04:17:40.070Z,0.73
2023-01-21T04:20:07.635Z,0.74
2023-01-21T04:22:34.597Z,0.75
2023-01-21T04:25:01.448Z,0.75
2023-01-21T04:27:28.381Z,0.73
2023-01-21T04:29:55.349Z,0.72
2023-01-21T04:32:22.142Z,0.71
2023-01-21T04:34:48.906Z,0.71
2023-01-21T04:37:15.720Z,0.71
2023-01-21T04:39:42.494Z,0.72
2023-01-21T04:42:09.274Z,0.73
2023-01-21T04:44:36.140Z,0.76
2023-01-21T04:47:03.028Z,0.73
2023-01-21T04:49:29.791Z,0.68
2023-01-21T04:51:57.031Z,0.65
2023-01-21T04:54:24.479Z,0.64
2023-01-21T04:56:51.278Z,0.65
2023-01-21T04:59:18.365Z,0.65
2023-01-21T05:01:45.132Z,0.65
2023-01-21T05:04:11.949Z,0.65
2023-01-21T05:06:38.801Z,0.64
2023-01-21T05:09:05.664Z,0.61
2023-01-21T05:11:32.450Z,0.60
2023-01-21T05:13:59.300Z,0.60
2023-01-21T05:16:26.108Z,0.61
2023-01-21T05:18:52.903Z,0.61
2023-01-21T05:21:19.797Z,0.60
2023-01-21T05:23:46.558Z,0.60
2023-01-21T05:26:13.438Z,0.59
2023-01-21T05:28:40.301Z,0.58
2023-01-21T05:31:07.177Z,0.60
2023-01-21T05:33:35.364Z,0.62
2023-01-21T05:36:03.918Z,0.62
2023-01-21T05:38:31.139Z,0.63
2023-01-21T05:41:00.678Z,0.66
2023-01-21T05:43:27.884Z,0.64
2023-01-21T05:45:55.025Z,0.60
2023-01-21T05:48:22.542Z,0.57
2023-01-21T05:50:49.757Z,0.53
2023-01-21T05:53:17.719Z,0.56
2023-01-21T05:55:44.535Z,0.58
2023-01-21T05:58:11.435Z,0.58
2023-01-21T13:20:58.241Z,1.52
2023-01-21T13:23:33.931Z,1.58
2023-01-21T13:27:04.361Z,1.60
2023-01-21T13:29:51.809Z,1.63
2023-01-21T13:32:48.949Z,1.68
2023-01-21T13:35:36.866Z,1.76
2023-01-21T13:38:14.678Z,1.82
2023-01-21T13:40:51.799Z,1.90
2023-01-21T13:43:36.790Z,1.93
2023-01-21T13:46:03.999Z,1.94
2023-01-21T13:48:33.718Z,1.93
2023-01-21T13:51:01.961Z,1.91
2023-01-21T13:53:35.594Z,1.91
2023-01-21T13:56:33.368Z,1.89
2023-01-21T13:59:07.753Z,1.95
2023-01-21T14:01:44.531Z,2.03
2023-01-21T14:04:18.732Z,2.09
2023-01-21T14:06:53.169Z,2.12
2023-01-21T14:09:24.875Z,2.14
2023-01-21T14:12:18.428Z,2.15
2023-01-21T14:15:15.999Z,2.14
2023-01-21T14:18:03.460Z,2.14
2023-01-21T14:20:32.595Z,2.11
2023-01-21T14:23:08.707Z,2.08
2023-01-21T14:25:44.693Z,2.07
2023-01-21T14:28:12.864Z,2.09
2023-01-21T14:31:02.561Z,2.08
2023-01-21T14:33:44.377Z,2.10
2023-01-21T14:36:19.642Z,2.11
2023-01-21T14:39:01.409Z,2.11
2023-01-21T14:41:58.841Z,2.10
2023-01-21T14:44:41.059Z,2.09
2023-01-21T14:49:40.026Z,2.01
2023-01-21T14:52:07.010Z,2.02
2023-01-21T14:54:33.874Z,2.02
2023-01-21T14:57:13.809Z,2.02
2023-01-21T14:59:47.192Z,2.03
2023-01-21T15:02:30.940Z,2.01
2023-01-21T15:05:01.007Z,1.95
2023-01-21T15:07:31.781Z,1.89
2023-01-21T15:10:02.742Z,1.85
2023-01-21T15:12:33.692Z,1.79
2023-01-21T15:15:03.593Z,1.79
2023-01-21T15:17:47.317Z,1.75
2023-01-21T15:20:50.095Z,1.70
2023-01-21T15:23:32.589Z,1.67
2023-01-21T15:26:07.811Z,1.67
2023-01-21T15:28:52.268Z,1.65
2023-01-21T15:31:20.237Z,1.63
2023-01-21T15:33:47.226Z,1.58
2023-01-21T15:36:22.223Z,1.54
2023-01-21T15:38:50.120Z,1.53
2023-01-21T15:41:47.510Z,1.51
2023-01-21T15:44:21.266Z,1.48
2023-01-21T15:46:48.111Z,1.46
2023-01-21T15:49:25.210Z,1.45
2023-01-21T15:52:23.952Z,1.43
2023-01-21T15:55:13.762Z,1.38
2023-01-21T15:57:41.709Z,1.34
2023-01-21T16:00:13.085Z,1.30
2023-01-21T16:02:58.049Z,1.25
2023-01-21T16:05:32.992Z,1.21
2023-01-21T16:08:23.043Z,1.22
2023-01-21T16:11:06.590Z,1.25
2023-01-21T16:13:58.987Z,1.28
2023-01-21T16:16:48.826Z,1.28
2023-01-21T16:19:21.326Z,1.26
2023-01-21T16:21:55.136Z,1.25
2023-01-21T16:24:27.773Z,1.24
2023-01-21T16:26:57.335Z,1.19
2023-01-21T16:29:24.144Z,1.17
2023-01-21T16:31:59.530Z,1.16
2023-01-21T16:34:43.103Z,1.18
2023-01-21T16:37:13.880Z,1.18
2023-01-21T16:39:43.119Z,1.17
2023-01-21T16:42:38.082Z,1.18
2023-01-21T16:45:22.242Z,1.20
2023-01-21T16:47:57.042Z,1.20
2023-01-21T16:50:26.597Z,1.15
2023-01-21T16:52:55.247Z,1.13
2023-01-21T16:55:26.906Z,1.12
2023-01-21T16:57:55.956Z,1.12
2023-01-21T17:00:29.901Z,1.16
2023-01-21T17:02:58.263Z,1.19
2023-01-21T17:05:30.206Z,1.22
2023-01-21T17:08:00.699Z,1.22
2023-01-21T17:10:37.745Z,1.18
2023-01-21T17:13:10.683Z,1.14
2023-01-21T17:15:40.327Z,1.12
2023-01-21T17:18:18.292Z,1.10
2023-01-21T17:20:51.260Z,1.08
2023-01-21T17:23:22.929Z,1.08
2023-01-21T17:25:55.996Z,1.07
2023-01-21T17:28:38.831Z,1.08
2023-01-21T17:31:17.546Z,1.09
2023-01-21T17:33:45.615Z,1.08
2023-01-21T17:36:15.453Z,1.07
2023-01-21T17:38:44.916Z,1.02
2023-01-21T17:41:24.707Z,0.94
2023-01-21T17:43:53.931Z,0.87
2023-01-21T17:46:23.025Z,0.82
2023-01-21T17:48:55.003Z,0.78
2023-01-21T17:51:28.857Z,0.79
2023-01-21T17:53:57.351Z,0.80
2023-01-21T17:56:48.001Z,0.79
2023-01-21T17:59:34.889Z,0.76
2023-01-21T18:02:03.636Z,0.73
2023-01-21T18:04:30.969Z,0.70
2023-01-21T18:06:58.296Z,0.62
2023-01-21T18:09:25.987Z,0.61
2023-01-21T18:11:54.866Z,0.61
2023-01-21T18:14:24.303Z,0.63
2023-01-21T18:16:53.627Z,0.68
2023-01-21T18:19:31.526Z,0.73
2023-01-21T18:22:00.213Z,0.78
2023-01-21T18:24:27.931Z,0.80
2023-01-21T18:26:57.016Z,0.80
2023-01-21T18:29:28.300Z,0.77
2023-01-21T18:31:55.307Z,0.74
2023-01-21T18:34:22.710Z,0.71
2023-01-21T18:36:50.775Z,0.70
2023-01-21T18:39:20.242Z,0.69
2023-01-21T18:41:47.775Z,0.69
2023-01-21T18:44:15.291Z,0.69
2023-01-21T18:46:43.498Z,0.71
2023-01-21T18:49:20.222Z,0.73
2023-01-21T18:51:47.649Z,0.74
2023-01-21T18:54:16.291Z,0.73
2023-01-21T18:56:43.807Z,0.74
2023-01-21T18:59:15.386Z,0.77
2023-01-21T19:01:43.347Z,0.81
2023-01-21T19:04:15.826Z,0.84
2023-01-21T19:06:43.041Z,0.87
2023-01-21T19:09:26.318Z,0.90
2023-01-21T19:11:53.202Z,0.90
2023-01-21T19:14:20.304Z,0.90
2023-01-21T19:16:47.479Z,0.89
2023-01-21T19:19:17.124Z,0.90
2023-01-21T19:21:44.000Z,0.91
2023-01-21T19:24:12.242Z,0.93
2023-01-21T19:26:39.828Z,0.95
2023-01-21T19:29:13.959Z,0.94
2023-01-21T19:31:40.748Z,0.95
2023-01-21T19:34:10.220Z,0.94
2023-01-21T19:36:38.317Z,0.95
2023-01-21T19:39:15.963Z,0.92
2023-01-21T19:41:42.935Z,0.89
2023-01-21T19:44:09.712Z,0.89
2023-01-21T19:46:36.896Z,0.91
2023-01-21T19:49:14.471Z,0.94
2023-01-21T19:51:42.554Z,0.96
2023-01-21T19:54:10.285Z,0.98
2023-01-21T19:56:37.435Z,0.98
2023-01-21T19:59:04.457Z,0.96
2023-01-21T20:01:31.473Z,0.92
2023-01-21T20:04:00.659Z,0.84
2023-01-21T20:06:34.654Z,0.77
2023-01-21T20:09:01.877Z,0.71
2023-01-21T20:11:29.512Z,0.64
2023-01-21T20:13:56.469Z,0.57
2023-01-21T20:16:25.332Z,0.50
2023-01-21T20:18:54.872Z,0.43
2023-01-21T20:21:21.735Z,0.36
2023-01-21T20:23:48.824Z,0.28
2023-01-21T20:26:21.138Z,0.18
2023-01-21T20:28:51.469Z,0.09
2023-01-21T20:31:19.099Z,0.01
2023-01-21T20:33:46.326Z,-0.03
2023-01-21T20:36:20.013Z,-0.05
2023-01-21T20:38:47.125Z,-0.07
2023-01-21T20:41:14.262Z,-0.07
2023-01-21T20:43:44.367Z,-0.06
2023-01-21T20:46:18.755Z,-0.08
2023-01-21T20:48:45.963Z,-0.14
2023-01-21T20:51:13.234Z,-0.21
2023-01-21T20:53:40.199Z,-0.27
2023-01-21T20:56:18.711Z,-0.34
2023-01-21T20:58:47.995Z,-0.43
2023-01-21T21:01:17.120Z,-0.41
2023-01-21T21:03:43.980Z,-0.41
2023-01-21T21:06:21.397Z,-0.40
2023-01-21T21:08:49.161Z,-0.37
2023-01-21T21:11:23.339Z,-0.36
2023-01-21T21:13:52.465Z,-0.36
2023-01-21T21:16:23.877Z,-0.36
2023-01-21T21:18:50.854Z,-0.36
2023-01-21T21:21:20.142Z,-0.34
2023-01-21T21:23:48.138Z,-0.32
2023-01-21T21:26:18.589Z,-0.27
2023-01-21T21:28:46.684Z,-0.20
2023-01-21T21:31:15.390Z,-0.16
2023-01-21T21:33:43.408Z,-0.11
2023-01-21T21:36:15.488Z,-0.07
2023-01-21T21:38:42.993Z,-0.02
2023-01-21T21:41:35.039Z,0.01
2023-01-21T21:44:02.042Z,0.01
2023-01-21T21:46:44.510Z,0.02
2023-01-21T21:49:12.682Z,0.05
2023-01-21T21:51:39.539Z,0.08
2023-01-21T21:54:08.050Z,0.15
2023-01-21T21:56:35.977Z,0.20
2023-01-21T21:59:03.295Z,0.24
2023-01-21T22:01:31.332Z,0.25
2023-01-21T22:04:00.003Z,0.28
2023-01-21T22:06:26.791Z,0.26
2023-01-21T22:08:55.509Z,0.27
2023-01-21T22:11:23.026Z,0.26
2023-01-21T22:13:51.272Z,0.30
2023-01-21T22:16:21.532Z,0.31
2023-01-21T22:18:48.404Z,0.32
2023-01-21T22:21:17.657Z,0.32
2023-01-21T22:23:45.027Z,0.33
2023-01-21T22:26:14.337Z,0.32
2023-01-21T22:28:42.966Z,0.29
2023-01-21T22:31:13.556Z,0.28
2023-01-21T22:33:40.507Z,0.28
2023-01-21T22:36:11.833Z,0.30
2023-01-21T22:38:40.759Z,0.30
2023-01-21T22:41:10.669Z,0.33
2023-01-21T22:43:41.842Z,0.35
2023-01-21T22:46:12.408Z,0.35
2023-01-21T22:48:39.585Z,0.33
2023-01-21T22:51:06.784Z,0.28
2023-01-21T22:53:40.399Z,0.22
2023-01-21T22:56:08.155Z,0.20
2023-01-21T22:58:35.652Z,0.18
2023-01-21T23:01:02.773Z,0.17
2023-01-21T23:03:30.139Z,0.18
2023-01-21T23:06:07.447Z,0.20
2023-01-21T23:08:36.833Z,0.21
2023-01-21T23:11:05.879Z,0.20
2023-01-21T23:13:33.892Z,0.19
2023-01-21T23:16:01.238Z,0.16
2023-01-21T23:18:29.382Z,0.11
2023-01-21T23:20:56.833Z,0.06
2023-01-21T23:23:24.887Z,0.02
2023-01-21T23:25:51.887Z,0.00
2023-01-21T23:28:18.706Z,0.02
2023-01-21T23:30:45.747Z,0.04
2023-01-21T23:33:12.972Z,0.04
2023-01-21T23:35:39.787Z,0.07
2023-01-21T23:38:06.638Z,0.05
2023-01-21T23:40:33.492Z,0.05
2023-01-21T23:43:00.362Z,0.04
2023-01-21T23:45:27.203Z,0.01
2023-01-21T23:47:54.629Z,-0.01
2023-01-21T23:50:21.592Z,-0.01
2023-01-21T23:52:48.445Z,0.02
2023-01-21T23:55:15.279Z,0.04
2023-01-21T23:57:42.127Z,0.08
